createdAt,value
2018-12-09T00:02:01.048Z,98810.11
2018-12-09T00:04:29.118Z,98789.42
2018-12-09T00:06:57.189Z,98787.34
2018-12-09T00:09:25.071Z,98779.48
2018-12-09T00:11:53.131Z,98777.45
2018-12-09T00:14:21.647Z,98762.97
2018-12-09T00:16:50.090Z,98757.02
2018-12-09T00:19:18.529Z,98748.35
2018-12-09T00:21:46.619Z,98739.77
2018-12-09T00:24:14.712Z,98739.47
2018-12-09T00:26:43.813Z,98736.73
2018-12-09T00:29:12.288Z,98729.38
2018-12-09T00:31:40.359Z,98717.57
2018-12-09T00:34:08.431Z,98709.66
2018-12-09T00:36:36.263Z,98704.78
2018-12-09T00:39:05.834Z,98691.86
2018-12-09T00:41:33.721Z,98685.16
2018-12-09T00:44:01.584Z,98686.61
2018-12-09T00:46:29.606Z,98684.13
2018-12-09T00:48:58.499Z,98679.24
2018-12-09T00:51:26.363Z,98671.78
2018-12-09T00:53:54.274Z,98660.73
2018-12-09T00:56:22.264Z,98664.17
2018-12-09T00:58:50.167Z,98655.38
2018-12-09T01:01:18.036Z,98649.59
2018-12-09T01:03:46.106Z,98646.00
2018-12-09T01:06:13.955Z,98623.97
2018-12-09T01:08:42.018Z,98602.58
2018-12-09T01:11:10.115Z,98587.75
2018-12-09T01:13:38.149Z,98587.45
2018-12-09T01:16:06.052Z,98573.58
2018-12-09T01:18:34.126Z,98564.20
2018-12-09T01:21:01.972Z,98557.72
2018-12-09T01:23:30.063Z,98560.84
2018-12-09T01:25:58.133Z,98556.77
2018-12-09T01:28:26.044Z,98540.01
2018-12-09T01:30:54.276Z,98531.84
2018-12-09T01:33:22.347Z,98538.34
2018-12-09T01:35:50.190Z,98532.08
2018-12-09T01:38:18.656Z,98525.03
2018-12-09T01:40:52.145Z,98509.73
2018-12-09T01:43:21.187Z,98503.88
2018-12-09T01:45:49.261Z,98502.12
2018-12-09T01:48:17.730Z,98504.11
2018-12-09T01:50:45.605Z,98498.45
2018-12-09T01:56:17.960Z,98487.69
2018-12-09T01:58:46.450Z,98482.14
2018-12-09T02:01:14.542Z,98475.58
2018-12-09T02:03:42.533Z,98475.83
2018-12-09T02:06:10.473Z,98474.78
2018-12-09T02:08:38.413Z,98457.31
2018-12-09T02:11:06.837Z,98460.73
2018-12-09T02:13:34.770Z,98456.16
2018-12-09T02:16:02.762Z,98443.52
2018-12-09T02:18:30.825Z,98442.61
2018-12-09T02:20:58.915Z,98441.42
2018-12-09T02:23:26.986Z,98434.50
2018-12-09T02:25:55.058Z,98429.54
2018-12-09T02:28:22.963Z,98425.03
2018-12-09T02:30:50.980Z,98421.42
2018-12-09T02:33:19.073Z,98417.61
2018-12-09T02:35:49.036Z,98407.83
2018-12-09T02:38:17.052Z,98409.11
2018-12-09T02:40:44.916Z,98405.34
2018-12-09T02:43:13.401Z,98399.33
2018-12-09T02:45:41.642Z,98396.73
2018-12-09T02:48:09.540Z,98397.28
2018-12-09T02:50:37.615Z,98386.27
2018-12-09T02:53:05.520Z,98377.57
2018-12-09T02:55:33.510Z,98371.32
2018-12-09T02:58:01.623Z,98363.09
2018-12-09T03:00:30.099Z,98353.59
2018-12-09T03:02:57.971Z,98358.92
2018-12-09T03:05:25.632Z,98359.48
2018-12-09T03:07:53.705Z,98356.75
2018-12-09T03:10:21.681Z,98355.28
2018-12-09T03:12:49.645Z,98354.02
2018-12-09T03:15:17.302Z,98343.01
2018-12-09T03:17:45.652Z,98345.41
2018-12-09T03:20:13.497Z,98348.75
2018-12-09T03:22:41.483Z,98342.06
2018-12-09T03:25:09.850Z,98336.52
2018-12-09T03:27:38.479Z,98333.00
2018-12-09T03:30:06.481Z,98331.95
2018-12-09T03:32:34.830Z,98323.77
2018-12-09T03:35:02.936Z,98328.22
2018-12-09T03:37:30.927Z,98328.66
2018-12-09T03:39:58.835Z,98319.84
2018-12-09T03:42:26.907Z,98324.69
2018-12-09T03:44:54.749Z,98328.58
2018-12-09T03:47:22.640Z,98322.33
2018-12-09T03:49:50.506Z,98325.89
2018-12-09T03:52:18.579Z,98325.13
2018-12-09T03:54:46.239Z,98320.89
2018-12-09T03:57:14.517Z,98317.23
2018-12-09T03:59:42.493Z,98314.98
2018-12-09T04:02:10.359Z,98309.29
2018-12-09T04:04:38.320Z,98313.27
2018-12-09T04:07:06.066Z,98316.67
2018-12-09T04:09:33.905Z,98309.81
2018-12-09T04:12:01.715Z,98310.98
2018-12-09T04:14:29.689Z,98314.63
2018-12-09T04:16:57.860Z,98312.14
2018-12-09T04:19:25.929Z,98309.53
2018-12-09T04:21:53.833Z,98301.61
2018-12-09T04:24:21.867Z,98305.14
2018-12-09T04:26:49.718Z,98302.33
2018-12-09T04:29:18.205Z,98304.85
2018-12-09T04:31:46.287Z,98296.45
2018-12-09T04:34:14.263Z,98306.57
2018-12-09T04:36:42.127Z,98302.48
2018-12-09T04:39:10.268Z,98303.93
2018-12-09T04:41:38.660Z,98301.11
2018-12-09T04:44:06.826Z,98303.66
2018-12-09T04:46:34.519Z,98306.00
2018-12-09T04:49:02.580Z,98309.45
2018-12-09T04:51:34.522Z,98311.46
2018-12-09T04:54:02.511Z,98308.64
2018-12-09T04:56:30.452Z,98301.58
2018-12-09T04:59:15.716Z,98309.12
2018-12-09T05:01:44.673Z,98317.09
2018-12-09T05:04:13.130Z,98313.56
2018-12-09T05:06:41.195Z,98318.05
2018-12-09T05:09:09.270Z,98311.28
2018-12-09T05:11:37.944Z,98318.61
2018-12-09T05:14:06.335Z,98329.27
2018-12-09T05:16:34.206Z,98323.92
2018-12-09T05:19:01.962Z,98335.23
2018-12-09T05:21:29.933Z,98333.36
2018-12-09T05:23:58.108Z,98340.98
2018-12-09T05:26:26.139Z,98347.87
2018-12-09T05:28:54.230Z,98346.95
2018-12-09T05:31:22.321Z,98354.76
2018-12-09T05:33:50.311Z,98359.30
2018-12-09T05:36:18.100Z,98358.02
2018-12-09T05:38:46.125Z,98358.34
2018-12-09T05:41:13.788Z,98359.32
2018-12-09T05:43:41.847Z,98357.06
2018-12-09T05:46:09.913Z,98362.12
2018-12-09T05:48:38.001Z,98354.52
2018-12-09T05:51:05.720Z,98363.91
2018-12-09T05:53:33.637Z,98358.14
2018-12-09T05:56:01.601Z,98358.23
2018-12-09T05:58:29.671Z,98365.62
2018-12-09T06:00:57.507Z,98366.06
2018-12-09T06:03:25.447Z,98378.83
2018-12-09T06:05:53.439Z,98365.14
2018-12-09T06:08:21.344Z,98385.42
2018-12-09T06:10:49.414Z,98368.50
2018-12-09T06:13:17.463Z,98370.19
2018-12-09T06:15:45.557Z,98379.04
2018-12-09T06:18:13.541Z,98387.41
2018-12-09T06:20:41.354Z,98407.81
2018-12-09T06:23:09.749Z,98385.85
2018-12-09T06:25:37.814Z,98398.73
2018-12-09T06:28:06.079Z,98390.14
2018-12-09T06:30:34.189Z,98397.77
2018-12-09T06:33:02.262Z,98399.41
2018-12-09T06:35:30.702Z,98401.58
2018-12-09T06:37:58.607Z,98408.35
2018-12-09T06:40:26.658Z,98403.05
2018-12-09T06:42:54.750Z,98419.47
2018-12-09T06:45:22.715Z,98421.84
2018-12-09T06:47:50.804Z,98421.33
2018-12-09T06:50:19.346Z,98427.22
2018-12-09T06:52:47.386Z,98430.84
2018-12-09T06:55:15.277Z,98438.58
2018-12-09T06:57:43.342Z,98450.50
2018-12-09T07:00:11.455Z,98448.63
2018-12-09T07:02:39.528Z,98451.05
2018-12-09T07:05:07.862Z,98453.91
2018-12-09T07:07:35.783Z,98466.82
2018-12-09T07:10:04.562Z,98464.95
2018-12-09T07:12:32.486Z,98484.04
2018-12-09T07:15:00.497Z,98482.52
2018-12-09T07:17:28.818Z,98494.22
2018-12-09T07:19:56.844Z,98500.34
2018-12-09T07:22:25.374Z,98496.73
2018-12-09T07:24:53.195Z,98505.62
2018-12-09T07:27:21.256Z,98517.02
2018-12-09T07:29:49.521Z,98517.20
2018-12-09T07:32:17.587Z,98520.30
2018-12-09T07:34:45.683Z,98516.77
2018-12-09T07:37:13.718Z,98528.68
2018-12-09T07:39:41.824Z,98525.15
2018-12-09T07:42:10.306Z,98529.76
2018-12-09T07:44:38.379Z,98535.00
2018-12-09T07:47:06.206Z,98531.41
2018-12-09T07:49:34.317Z,98543.31
2018-12-09T07:52:02.061Z,98545.55
2018-12-09T07:54:29.843Z,98543.69
2018-12-09T07:56:57.915Z,98549.84
2018-12-09T07:59:26.395Z,98558.57
2018-12-09T08:01:54.368Z,98556.52
2018-12-09T08:04:22.314Z,98556.23
2018-12-09T08:06:50.254Z,98562.50
2018-12-09T08:09:18.073Z,98572.08
2018-12-09T08:11:46.035Z,98583.23
2018-12-09T08:14:14.004Z,98581.94
2018-12-09T08:16:41.867Z,98585.30
2018-12-09T08:19:09.909Z,98590.77
2018-12-09T08:21:37.973Z,98607.23
2018-12-09T08:24:06.064Z,98612.02
2018-12-09T08:26:34.129Z,98617.02
2018-12-09T08:29:02.195Z,98619.96
2018-12-09T08:31:30.288Z,98615.63
2018-12-09T08:33:58.781Z,98625.45
2018-12-09T08:36:26.841Z,98624.41
2018-12-09T08:38:54.880Z,98635.48
2018-12-09T08:41:22.972Z,98643.77
2018-12-09T08:43:51.039Z,98641.98
2018-12-09T08:46:19.135Z,98654.16
2018-12-09T08:48:46.844Z,98642.30
2018-12-09T08:51:14.759Z,98660.04
2018-12-09T08:53:42.575Z,98660.04
2018-12-09T08:56:10.792Z,98657.06
2018-12-09T08:58:38.857Z,98668.05
2018-12-09T09:01:06.949Z,98679.11
2018-12-09T09:03:34.818Z,98679.35
2018-12-09T09:06:02.728Z,98683.69
2018-12-09T09:08:30.648Z,98694.26
2018-12-09T09:10:58.620Z,98693.53
2018-12-09T09:13:26.349Z,98704.69
2018-12-09T09:15:54.558Z,98702.66
2018-12-09T09:18:23.448Z,98706.86
2018-12-09T09:20:51.371Z,98713.83
2018-12-09T09:23:19.288Z,98710.15
2018-12-09T09:25:47.253Z,98709.88
2018-12-09T09:28:15.324Z,98708.95
2018-12-09T09:30:43.360Z,98716.44
2018-12-09T09:33:11.449Z,98712.31
2018-12-09T09:35:39.333Z,98718.58
2018-12-09T09:38:07.814Z,98721.09
2018-12-09T09:40:35.646Z,98715.46
2018-12-09T09:43:03.711Z,98724.28
2018-12-09T09:45:31.803Z,98726.77
2018-12-09T09:47:59.841Z,98733.10
2018-12-09T09:50:27.556Z,98739.75
2018-12-09T09:52:55.629Z,98737.02
2018-12-09T09:55:24.517Z,98739.36
2018-12-09T09:57:52.589Z,98740.09
2018-12-09T10:00:20.295Z,98742.87
2018-12-09T10:02:48.160Z,98735.39
2018-12-09T10:05:16.802Z,98743.16
2018-12-09T10:07:44.817Z,98748.23
2018-12-09T10:10:12.740Z,98754.78
2018-12-09T10:12:40.448Z,98748.72
2018-12-09T10:15:08.516Z,98762.10
2018-12-09T10:17:36.503Z,98760.56
2018-12-09T10:20:04.954Z,98745.30
2018-12-09T10:22:33.304Z,98762.59
2018-12-09T10:25:01.151Z,98761.64
2018-12-09T10:27:29.239Z,98762.88
2018-12-09T10:29:56.957Z,98758.39
2018-12-09T10:32:24.972Z,98763.42
2018-12-09T10:34:52.838Z,98758.47
2018-12-09T10:37:20.878Z,98760.69
2018-12-09T10:39:48.982Z,98764.41
2018-12-09T10:42:16.685Z,98768.19
2018-12-09T10:44:44.674Z,98767.53
2018-12-09T10:47:12.786Z,98767.91
2018-12-09T10:49:40.857Z,98771.12
2018-12-09T10:52:08.921Z,98776.00
2018-12-09T10:54:36.987Z,98770.54
2018-12-09T10:57:04.928Z,98770.55
2018-12-09T10:59:32.922Z,98776.43
2018-12-09T11:02:07.083Z,98775.88
2018-12-09T11:04:35.020Z,98778.28
2018-12-09T11:07:03.092Z,98778.27
2018-12-09T11:09:31.166Z,98778.47
2018-12-09T11:11:59.072Z,98776.97
2018-12-09T11:14:27.308Z,98779.19
2018-12-09T11:16:55.152Z,98781.53
2018-12-09T11:19:23.243Z,98782.16
2018-12-09T11:21:51.109Z,98786.05
2018-12-09T11:24:19.124Z,98787.55
2018-12-09T11:26:47.048Z,98792.28
2018-12-09T11:29:15.030Z,98785.70
2018-12-09T11:31:42.821Z,98791.38
2018-12-09T11:34:11.057Z,98791.05
2018-12-09T11:36:39.129Z,98787.44
2018-12-09T11:39:09.260Z,98782.07
2018-12-09T11:41:37.319Z,98788.23
2018-12-09T11:44:05.049Z,98787.78
2018-12-09T11:46:33.257Z,98784.63
2018-12-09T11:49:01.109Z,98789.83
2018-12-09T11:51:29.196Z,98786.04
2018-12-09T11:53:57.882Z,98793.61
2018-12-09T11:56:25.747Z,98792.62
2018-12-09T11:58:53.794Z,98793.33
2018-12-09T12:01:21.891Z,98794.41
2018-12-09T12:03:49.925Z,98795.95
2018-12-09T12:06:18.615Z,98796.20
2018-12-09T12:08:46.680Z,98793.89
2018-12-09T12:11:14.645Z,98797.70
2018-12-09T12:13:43.684Z,98810.48
2018-12-09T12:16:11.651Z,98804.71
2018-12-09T12:18:39.593Z,98810.84
2018-12-09T12:21:07.692Z,98811.57
2018-12-09T12:23:35.822Z,98808.66
2018-12-09T12:26:04.193Z,98812.52
2018-12-09T12:28:32.456Z,98811.47
2018-12-09T12:31:00.180Z,98816.30
2018-12-09T12:33:28.085Z,98815.39
2018-12-09T12:35:55.951Z,98806.91
2018-12-09T12:38:23.966Z,98820.57
2018-12-09T12:40:51.848Z,98826.66
2018-12-09T12:43:19.775Z,98830.36
2018-12-09T12:45:47.789Z,98831.23
2018-12-09T12:48:15.861Z,98824.34
2018-12-09T12:50:43.894Z,98824.17
2018-12-09T12:53:12.585Z,98837.65
2018-12-09T12:55:40.484Z,98835.66
2018-12-09T12:58:08.441Z,98841.44
2018-12-09T13:00:36.607Z,98843.78
2018-12-09T13:03:04.647Z,98843.30
2018-12-09T13:05:32.565Z,98839.86
2018-12-09T13:08:00.635Z,98842.80
2018-12-09T13:10:28.544Z,98852.36
2018-12-09T13:12:56.573Z,98854.11
2018-12-09T13:15:24.500Z,98851.00
2018-12-09T13:17:52.440Z,98867.30
2018-12-09T13:20:20.993Z,98869.77
2018-12-09T13:22:48.859Z,98872.11
2018-12-09T13:25:16.931Z,98876.86
2018-12-09T13:27:45.616Z,98876.86
2018-12-09T13:30:13.686Z,98883.70
2018-12-09T13:32:41.658Z,98893.16
2018-12-09T13:35:09.624Z,98750.24
2018-12-09T13:37:37.664Z,98896.46
2018-12-09T13:40:05.889Z,98897.50
2018-12-09T13:42:34.248Z,98900.69
2018-12-09T13:45:01.937Z,98890.75
2018-12-09T13:47:30.082Z,98898.70
2018-12-09T13:49:58.053Z,98888.16
2018-12-09T13:52:25.758Z,98903.11
2018-12-09T13:54:53.823Z,98916.36
2018-12-09T13:57:22.065Z,98914.05
2018-12-09T13:59:50.105Z,98915.89
2018-12-09T14:02:18.171Z,98925.50
2018-12-09T14:04:46.484Z,98922.86
2018-12-09T14:07:14.530Z,98919.58
2018-12-09T14:09:42.567Z,98920.45
2018-12-09T14:12:10.657Z,98927.02
2018-12-09T14:14:38.555Z,98920.60
2018-12-09T14:17:06.632Z,98931.77
2018-12-09T14:19:34.681Z,98922.84
2018-12-09T14:22:02.821Z,98928.30
2018-12-09T14:24:31.010Z,98943.81
2018-12-09T14:26:59.109Z,98939.56
2018-12-09T14:29:27.192Z,98941.39
2018-12-09T14:31:55.470Z,98945.27
2018-12-09T14:34:23.137Z,98943.41
2018-12-09T14:36:51.039Z,98952.55
2018-12-09T14:39:18.928Z,98940.58
2018-12-09T14:41:46.894Z,98954.17
2018-12-09T14:44:15.512Z,98952.61
2018-12-09T14:46:43.325Z,98962.02
2018-12-09T14:49:11.353Z,98954.31
2018-12-09T14:51:39.016Z,98961.60
2018-12-09T14:54:07.087Z,98963.20
2018-12-09T14:56:35.164Z,98961.66
2018-12-09T14:59:02.904Z,98962.81
2018-12-09T15:01:30.892Z,98974.68
2018-12-09T15:03:58.888Z,98976.77
2018-12-09T15:06:26.727Z,98986.25
2018-12-09T15:08:54.593Z,98974.53
2018-12-09T15:11:22.767Z,98990.01
2018-12-09T15:13:50.722Z,98976.36
2018-12-09T15:16:18.706Z,98982.23
2018-12-09T15:18:46.571Z,98984.89
2018-12-09T15:21:14.545Z,98995.61
2018-12-09T15:23:43.235Z,98999.41
2018-12-09T15:26:11.195Z,98997.06
2018-12-09T15:28:39.115Z,99008.13
2018-12-09T15:31:07.133Z,99008.13
2018-12-09T15:33:34.995Z,99011.98
2018-12-09T15:36:03.071Z,99014.16
2018-12-09T15:38:31.128Z,99018.09
2018-12-09T15:40:59.210Z,99018.25
2018-12-09T15:43:27.786Z,99016.98
2018-12-09T15:45:55.741Z,99020.78
2018-12-09T15:48:24.218Z,99020.52
2018-12-09T15:50:52.728Z,99026.53
2018-12-09T15:53:20.749Z,99025.33
2018-12-09T15:55:48.838Z,99031.98
2018-12-09T15:58:16.942Z,99038.25
2018-12-09T16:00:51.071Z,99035.00
2018-12-09T16:03:19.209Z,99033.22
2018-12-09T16:05:47.275Z,99028.12
2018-12-09T16:08:15.371Z,99049.45
2018-12-09T16:10:43.206Z,99035.14
2018-12-09T16:13:11.272Z,99037.87
2018-12-09T16:15:39.362Z,99035.70
2018-12-09T16:18:07.427Z,99046.05
2018-12-09T16:20:35.494Z,99054.66
2018-12-09T16:23:03.592Z,99046.77
2018-12-09T16:25:32.650Z,99044.69
2018-12-09T16:28:00.760Z,99059.41
2018-12-09T16:30:28.831Z,99054.79
2018-12-09T16:32:56.850Z,99061.14
2018-12-09T16:35:24.737Z,99072.94
2018-12-09T16:37:53.428Z,99074.14
2018-12-09T16:40:21.732Z,99074.70
2018-12-09T16:42:49.802Z,99077.56
2018-12-09T16:45:17.736Z,99081.56
2018-12-09T16:47:45.641Z,99084.05
2018-12-09T16:50:14.221Z,99090.31
2018-12-09T16:52:42.196Z,99097.77
2018-12-09T16:55:10.159Z,99099.61
2018-12-09T16:57:38.231Z,99098.75
2018-12-09T17:00:06.598Z,99107.79
2018-12-09T17:02:34.470Z,99109.02
2018-12-09T17:05:02.570Z,99113.75
2018-12-09T17:07:30.617Z,99114.30
2018-12-09T17:09:58.531Z,99129.19
2018-12-09T17:12:26.523Z,99130.92
2018-12-09T17:14:54.832Z,99124.72
2018-12-09T17:17:22.879Z,99134.52
2018-12-09T17:19:50.944Z,99141.41
2018-12-09T17:22:19.561Z,99139.66
2018-12-09T17:24:47.425Z,99148.54
2018-12-09T17:27:15.495Z,99151.02
2018-12-09T17:29:43.407Z,99170.66
2018-12-09T17:32:11.825Z,99171.41
2018-12-09T17:34:40.087Z,99176.18
2018-12-09T17:37:09.213Z,99177.30
2018-12-09T17:39:40.374Z,99189.65
2018-12-09T17:42:08.811Z,99188.16
2018-12-09T17:44:36.910Z,99198.30
2018-12-09T17:47:04.941Z,99196.83
2018-12-09T17:49:32.848Z,99187.77
2018-12-09T17:52:00.715Z,99203.06
2018-12-09T17:54:28.563Z,99209.14
2018-12-09T17:56:57.154Z,99204.20
2018-12-09T17:59:26.567Z,99216.77
2018-12-09T18:01:54.487Z,99218.63
2018-12-09T18:04:23.119Z,99226.00
2018-12-09T18:06:51.117Z,99236.58
2018-12-09T18:09:19.213Z,99232.93
2018-12-09T18:11:47.298Z,99248.19
2018-12-09T18:14:15.404Z,99248.44
2018-12-09T18:16:43.229Z,99246.89
2018-12-09T18:19:11.342Z,99259.30
2018-12-09T18:21:39.386Z,99247.03
2018-12-09T18:24:07.629Z,99250.91
2018-12-09T18:26:35.556Z,99257.47
2018-12-09T18:29:03.423Z,99262.08
2018-12-09T18:31:31.148Z,99260.45
2018-12-09T18:33:59.339Z,99265.09
2018-12-09T18:36:27.434Z,99274.05
2018-12-09T18:38:55.371Z,99273.76
2018-12-09T18:41:23.336Z,99281.34
2018-12-09T18:43:51.401Z,99281.00
2018-12-09T18:46:19.513Z,99276.63
2018-12-09T18:48:47.379Z,99277.48
2018-12-09T18:51:15.354Z,99275.52
2018-12-09T18:53:43.164Z,99297.48
2018-12-09T18:56:11.754Z,99306.81
2018-12-09T18:58:40.279Z,99310.20
2018-12-09T19:01:08.153Z,99308.61
2018-12-09T19:03:36.111Z,99312.97
2018-12-09T19:06:04.017Z,99315.80
2018-12-09T19:08:32.571Z,99317.56
2018-12-09T19:11:00.499Z,99321.52
2018-12-09T19:13:28.606Z,99331.50
2018-12-09T19:15:56.309Z,99330.28
2018-12-09T19:18:25.047Z,99334.92
2018-12-09T19:20:52.940Z,99334.74
2018-12-09T19:23:21.077Z,99345.98
2018-12-09T19:25:49.646Z,99343.77
2018-12-09T19:28:17.484Z,99358.58
2018-12-09T19:30:48.304Z,99354.09
2018-12-09T19:33:15.837Z,99369.38
2018-12-09T19:35:43.911Z,99370.30
2018-12-09T19:38:11.948Z,99362.22
2018-12-09T19:40:40.372Z,99370.30
2018-12-09T19:43:09.969Z,99371.92
2018-12-09T19:45:37.894Z,99380.59
2018-12-09T19:48:05.904Z,99391.66
2018-12-09T19:50:33.950Z,99398.87
2018-12-09T19:53:03.559Z,99401.23
2018-12-09T19:55:31.409Z,99417.00
2018-12-09T19:57:59.397Z,99421.94
2018-12-09T20:00:27.367Z,99407.70
2018-12-09T20:02:56.380Z,99410.88
2018-12-09T20:05:24.495Z,99414.52
2018-12-09T20:07:52.359Z,99425.17
2018-12-09T20:10:20.317Z,99422.25
2018-12-09T20:12:48.443Z,99431.79
2018-12-09T20:15:16.534Z,99431.63
2018-12-09T20:17:45.198Z,99447.41
2018-12-09T20:20:13.264Z,99452.86
2018-12-09T20:22:41.360Z,99444.35
2018-12-09T20:25:09.269Z,99451.75
2018-12-09T20:27:37.136Z,99460.23
2018-12-09T20:30:07.623Z,99462.98
2018-12-09T20:32:35.565Z,99469.77
2018-12-09T20:35:03.731Z,99481.75
2018-12-09T20:37:31.836Z,99481.94
2018-12-09T20:39:59.689Z,99484.47
2018-12-09T20:42:27.775Z,99490.87
2018-12-09T20:44:55.639Z,99500.67
2018-12-09T20:47:23.685Z,99508.95
2018-12-09T20:49:52.547Z,99500.74
2018-12-09T20:52:20.516Z,99505.47
2018-12-09T20:54:49.132Z,99518.84
2018-12-09T20:57:17.230Z,99525.28
2018-12-09T20:59:45.301Z,99528.97
2018-12-09T21:02:13.573Z,99534.42
2018-12-09T21:04:41.570Z,99532.83
2018-12-09T21:07:09.685Z,99542.11
2018-12-09T21:09:37.788Z,99555.11
2018-12-09T21:12:05.717Z,99549.42
2018-12-09T21:14:33.689Z,99569.72
2018-12-09T21:17:01.773Z,99558.41
2018-12-09T21:19:30.228Z,99573.55
2018-12-09T21:21:58.349Z,99571.95
2018-12-09T21:24:26.421Z,99567.95
2018-12-09T21:26:54.390Z,99574.13
2018-12-09T21:29:22.451Z,99583.52
2018-12-09T21:31:50.267Z,99590.97
2018-12-09T21:34:18.133Z,99583.81
2018-12-09T21:36:46.024Z,99588.19
2018-12-09T21:39:14.016Z,99593.27
2018-12-09T21:41:42.080Z,99601.19
2018-12-09T21:44:10.172Z,99602.52
2018-12-09T21:46:37.887Z,99611.15
2018-12-09T21:49:05.905Z,99612.85
2018-12-09T21:51:33.618Z,99626.37
2018-12-09T21:54:02.810Z,99622.23
2018-12-09T21:56:30.528Z,99630.93
2018-12-09T21:58:58.565Z,99639.37
2018-12-09T22:01:26.634Z,99644.58
2018-12-09T22:03:54.721Z,99644.77
2018-12-09T22:06:22.788Z,99656.00
2018-12-09T22:08:50.853Z,99660.85
2018-12-09T22:11:18.956Z,99656.55
2018-12-09T22:13:47.134Z,99671.33
2018-12-09T22:16:15.025Z,99667.45
2018-12-09T22:21:38.868Z,99681.36
2018-12-09T22:24:06.837Z,99683.13
2018-12-09T22:26:34.663Z,99689.61
2018-12-09T22:32:06.273Z,99705.07
2018-12-09T22:34:34.837Z,99702.95
2018-12-09T22:37:02.849Z,99709.21
2018-12-09T22:39:30.933Z,99716.64
2018-12-09T22:41:58.801Z,99719.08
2018-12-09T22:44:26.871Z,99736.05
2018-12-09T22:46:55.537Z,99723.36
2018-12-09T22:49:23.659Z,99732.56
2018-12-09T22:51:51.494Z,99742.60
2018-12-09T22:54:19.541Z,99742.60
2018-12-09T22:56:47.151Z,99740.95
2018-12-09T22:59:14.872Z,99749.41
2018-12-09T23:01:55.291Z,99754.03
2018-12-09T23:04:23.903Z,99758.50
2018-12-09T23:06:53.519Z,99773.70
2018-12-09T23:09:21.299Z,99773.55
2018-12-09T23:11:49.369Z,99785.44
2018-12-09T23:14:17.023Z,99779.82
2018-12-09T23:16:44.809Z,99792.52
2018-12-09T23:19:12.423Z,99797.05
2018-12-09T23:21:40.056Z,99799.26
2018-12-09T23:24:07.748Z,99796.22
2018-12-09T23:26:35.439Z,99814.29
2018-12-09T23:29:03.263Z,99813.74
2018-12-09T23:31:30.985Z,99824.64
2018-12-09T23:33:58.687Z,99839.06
2018-12-09T23:36:26.492Z,99833.31
2018-12-09T23:38:54.311Z,99837.75
2018-12-09T23:41:22.234Z,99835.03
2018-12-09T23:43:50.056Z,99836.13
2018-12-09T23:46:17.782Z,99841.07
2018-12-09T23:48:46.385Z,99839.22
2018-12-09T23:51:14.071Z,99847.02
2018-12-09T23:53:42.032Z,99848.11
2018-12-09T23:56:09.830Z,99856.78
2018-12-09T23:58:37.805Z,99848.60
